Flight Sim Network - AYNZ Airport Info

    AYNZ (Nadzab)  Login to use Map Selector
   
   Puma Energy - HUBHUB INFO

  RUNWAY INFORMATION    |    Airport Elevation : 239ft    |    LAT : -6.56983  /  LON : 146.726
Runway Number 09 / 27 Runway Width 98' Runway Length 8004'
Lighted Runway Yes Runway StatusOpen Runway Surface Asphalt
  CLOSE ALTERNATE AIRPORTS
ICAODistanceAirport NameLongest RWRW SurfaceMAP
BUO39NMBulolo4374FTDirt
GSP55NMGusap11000FTDirt
MYY57NMMenyamya3576FTDirt
SDR59NMSaidor3806FTDirt
FIN67NMFinschhafen Airport5221FTGravel
GNA83NMGaraina5249FTDirt
AYGA85NMGoroka Airport5557FTGrass
AYMD99NMMadang Airport5174FTAsphalt
AYKM101NMKerema Airport3110FTGrass
TAP108NMTapini3002FTDirt
  AIRPORT WEATHER
75°F | 24°C
Temperature
94%
Humidity
29" | 0mb
Pressure
1sm
Visibility
LIFR
Flight Rules
BKN @ 300ft
Initial Clouds
-RA BR
Conditions
Wind Info
6/15/24 20:00Z
Updated

AYNZ 152000Z 08003G10KT 3000 -RA BR BKN003 BKN030 OVC040 24/23 Q1012
  AIRPORT FREQUENCIES
NameFrequency
ATIS128.600
GROUND121.700
TOWER121.700
MULTICOM124.700
APPROACH118.600
DEPARTURE118.600

Powered by Virtual Airlines Manager